createdAt,value
2017-04-25T00:00:48.467Z,9.96
2017-04-25T00:01:49.624Z,10.01
2017-04-25T00:02:50.931Z,10.01
2017-04-25T00:03:52.202Z,10.02
2017-04-25T00:04:53.609Z,10.00
2017-04-25T00:05:54.873Z,10.00
2017-04-25T00:06:56.052Z,10.03
2017-04-25T00:07:57.318Z,10.06
2017-04-25T00:08:58.684Z,10.10
2017-04-25T00:10:00.625Z,10.06
2017-04-25T00:11:02.308Z,10.05
2017-04-25T00:12:03.540Z,10.06
2017-04-25T00:13:05.055Z,10.08
2017-04-25T00:14:06.277Z,10.08
2017-04-25T00:15:07.375Z,10.07
2017-04-25T00:16:08.665Z,10.02
2017-04-25T00:17:10.007Z,10.00
2017-04-25T00:18:11.338Z,10.00
2017-04-25T00:19:12.458Z,10.00
2017-04-25T00:20:13.605Z,9.97
2017-04-25T00:21:14.941Z,9.93
2017-04-25T00:23:22.522Z,9.86
2017-04-25T00:24:23.671Z,9.82
2017-04-25T00:25:24.993Z,9.84
2017-04-25T00:26:26.282Z,9.87
2017-04-25T00:27:27.505Z,9.92
2017-04-25T00:28:28.601Z,9.96
2017-04-25T00:29:29.733Z,9.93
2017-04-25T00:30:32.352Z,9.87
2017-04-25T00:31:33.439Z,9.84
2017-04-25T00:32:34.674Z,9.82
2017-04-25T00:33:36.099Z,9.88
2017-04-25T00:34:37.131Z,9.92
2017-04-25T00:35:38.693Z,9.90
2017-04-25T00:36:39.806Z,9.91
2017-04-25T00:37:40.874Z,9.94
2017-04-25T00:38:42.171Z,9.94
2017-04-25T00:39:43.379Z,9.94
2017-04-25T00:40:44.649Z,9.92
2017-04-25T00:41:45.784Z,9.90
2017-04-25T00:42:47.207Z,9.93
2017-04-25T00:43:48.356Z,9.92
2017-04-25T00:44:49.522Z,9.86
2017-04-25T00:45:50.870Z,9.86
2017-04-25T00:46:52.023Z,9.84
2017-04-25T00:47:53.856Z,9.80
2017-04-25T00:48:55.194Z,9.77
2017-04-25T00:49:57.455Z,9.76
2017-04-25T00:50:58.803Z,9.68
2017-04-25T00:52:00.049Z,9.76
2017-04-25T00:53:01.376Z,9.73
2017-04-25T00:54:02.517Z,9.72
2017-04-25T00:55:05.176Z,9.71
2017-04-25T00:56:06.500Z,9.69
2017-04-25T00:57:07.636Z,9.63
2017-04-25T00:58:09.016Z,9.61
2017-04-25T00:59:10.219Z,9.66
2017-04-25T01:00:12.105Z,9.70
2017-04-25T01:01:13.133Z,9.69
2017-04-25T01:02:14.161Z,9.69
2017-04-25T01:03:15.609Z,9.68
2017-04-25T01:04:16.763Z,9.70
2017-04-25T01:05:17.902Z,9.77
2017-04-25T01:06:19.142Z,9.74
2017-04-25T01:07:20.363Z,9.75
2017-04-25T01:08:22.135Z,9.75
2017-04-25T01:09:23.272Z,9.80
2017-04-25T01:10:25.172Z,9.73
2017-04-25T01:11:26.129Z,9.66
2017-04-25T01:12:27.313Z,9.74
2017-04-25T01:13:28.363Z,9.75
2017-04-25T01:14:29.893Z,9.68
2017-04-25T01:15:31.015Z,9.67
2017-04-25T01:16:32.027Z,9.68
2017-04-25T01:17:33.283Z,9.65
2017-04-25T01:18:34.539Z,9.65
2017-04-25T01:19:35.538Z,9.68
2017-04-25T01:20:36.509Z,9.69
2017-04-25T01:21:37.677Z,9.70
2017-04-25T01:22:38.659Z,9.70
2017-04-25T01:23:39.694Z,9.62
2017-04-25T01:24:40.869Z,9.61
2017-04-25T01:25:42.001Z,9.67
2017-04-25T01:26:43.551Z,9.65
2017-04-25T01:27:45.089Z,9.68
2017-04-25T01:28:46.318Z,9.66
2017-04-25T01:29:47.279Z,9.62
2017-04-25T01:30:48.408Z,9.56
2017-04-25T01:31:49.593Z,9.52
2017-04-25T01:32:50.740Z,9.42
2017-04-25T01:33:51.934Z,9.38
2017-04-25T01:34:53.163Z,9.31
2017-04-25T01:35:54.116Z,9.28
2017-04-25T01:36:55.261Z,9.30
2017-04-25T01:37:56.527Z,9.23
2017-04-25T01:38:57.762Z,9.20
2017-04-25T01:39:59.178Z,9.20
2017-04-25T01:41:00.730Z,9.20
2017-04-25T01:42:01.979Z,9.19
2017-04-25T01:43:03.116Z,9.25
2017-04-25T01:44:04.496Z,9.25
2017-04-25T01:45:05.885Z,9.25
2017-04-25T01:46:07.130Z,9.20
2017-04-25T01:47:08.654Z,9.21
2017-04-25T01:48:09.786Z,9.27
2017-04-25T01:49:11.021Z,9.19
2017-04-25T01:50:12.479Z,9.21
2017-04-25T01:51:13.905Z,9.20
2017-04-25T01:52:15.151Z,9.14
2017-04-25T01:53:16.388Z,9.10
2017-04-25T01:54:17.712Z,9.06
2017-04-25T01:55:19.273Z,8.96
2017-04-25T01:56:20.813Z,8.92
2017-04-25T01:57:21.837Z,8.88
2017-04-25T01:58:23.108Z,8.95
2017-04-25T01:59:24.598Z,8.98
2017-04-25T02:00:25.838Z,8.99
2017-04-25T02:01:27.279Z,8.95
2017-04-25T02:02:28.632Z,8.96
2017-04-25T02:03:29.854Z,8.91
2017-04-25T02:04:30.885Z,8.88
2017-04-25T02:05:32.070Z,8.81
2017-04-25T02:06:33.865Z,8.78
2017-04-25T02:07:35.524Z,8.76
2017-04-25T02:08:36.698Z,8.81
2017-04-25T02:09:38.259Z,8.77
2017-04-25T02:10:39.301Z,8.78
2017-04-25T02:11:40.502Z,8.76
2017-04-25T02:12:41.574Z,8.85
2017-04-25T02:13:42.744Z,8.83
2017-04-25T02:14:43.871Z,8.85
2017-04-25T02:15:45.147Z,8.94
2017-04-25T02:16:46.359Z,9.00
2017-04-25T02:17:47.589Z,8.97
2017-04-25T02:18:48.755Z,8.88
2017-04-25T02:19:49.912Z,8.90
2017-04-25T02:20:51.122Z,8.90
2017-04-25T02:21:52.442Z,8.93
2017-04-25T02:22:53.894Z,8.91
2017-04-25T02:23:55.751Z,8.91
2017-04-25T02:24:56.884Z,8.88
2017-04-25T02:25:58.465Z,8.90
2017-04-25T02:26:59.745Z,8.95
2017-04-25T02:28:00.886Z,8.93
2017-04-25T02:29:02.249Z,8.97
2017-04-25T02:30:03.500Z,8.93
2017-04-25T02:31:04.726Z,8.91
2017-04-25T02:32:05.939Z,8.87
2017-04-25T02:33:06.918Z,8.85
2017-04-25T02:34:08.012Z,8.83
2017-04-25T02:35:09.097Z,8.86
2017-04-25T02:36:10.329Z,8.91
2017-04-25T02:37:11.490Z,8.91
2017-04-25T02:38:12.812Z,8.81
2017-04-25T02:39:13.969Z,8.77
2017-04-25T02:40:15.102Z,8.66
2017-04-25T02:41:16.121Z,8.60
2017-04-25T02:42:17.331Z,8.56
2017-04-25T02:43:18.644Z,8.63
2017-04-25T02:44:19.867Z,8.73
2017-04-25T02:45:21.318Z,8.78
2017-04-25T02:46:22.644Z,8.78
2017-04-25T02:47:23.981Z,8.80
2017-04-25T02:48:25.346Z,8.81
2017-04-25T02:49:26.844Z,8.71
2017-04-25T02:50:28.202Z,8.67
2017-04-25T02:51:29.763Z,8.68
2017-04-25T02:52:30.942Z,8.70
2017-04-25T02:53:32.212Z,8.63
2017-04-25T02:54:33.450Z,8.62
2017-04-25T02:55:34.788Z,8.52
2017-04-25T02:56:36.239Z,8.50
2017-04-25T02:57:37.707Z,8.55
2017-04-25T02:58:39.032Z,8.56
2017-04-25T02:59:40.090Z,8.54
2017-04-25T03:00:41.418Z,8.55
2017-04-25T03:01:42.553Z,8.54
2017-04-25T03:02:44.098Z,8.54
2017-04-25T03:03:45.048Z,8.53
2017-04-25T03:04:46.337Z,8.54
2017-04-25T03:05:47.681Z,8.53
2017-04-25T03:06:48.859Z,8.48
2017-04-25T03:07:50.035Z,8.48
2017-04-25T03:08:51.293Z,8.45
2017-04-25T03:09:52.732Z,8.44
2017-04-25T03:10:53.984Z,8.40
2017-04-25T03:11:55.354Z,8.38
2017-04-25T03:12:56.848Z,8.43
2017-04-25T03:13:58.296Z,8.44
2017-04-25T03:14:59.319Z,8.43
2017-04-25T03:16:00.757Z,8.47
2017-04-25T03:17:01.908Z,8.40
2017-04-25T03:18:03.350Z,8.38
2017-04-25T03:19:04.542Z,8.38
2017-04-25T03:20:05.910Z,8.31
2017-04-25T03:21:06.965Z,8.26
2017-04-25T03:22:08.413Z,8.20
2017-04-25T03:23:09.776Z,8.28
2017-04-25T03:24:11.087Z,8.20
2017-04-25T03:25:12.316Z,8.20
2017-04-25T03:26:13.589Z,8.14
2017-04-25T03:27:14.927Z,8.23
2017-04-25T03:28:16.287Z,8.34
2017-04-25T03:29:17.569Z,8.32
2017-04-25T03:30:18.695Z,8.31
2017-04-25T03:31:20.032Z,8.30
2017-04-25T03:32:21.138Z,8.32
2017-04-25T03:34:22.615Z,8.34
2017-04-25T03:36:23.751Z,8.32
2017-04-25T03:37:24.973Z,8.36
2017-04-25T03:38:25.986Z,8.37
2017-04-25T03:39:27.209Z,8.38
2017-04-25T03:41:28.598Z,8.41
2017-04-25T03:42:29.868Z,8.41
2017-04-25T03:43:31.069Z,8.46
2017-04-25T03:44:32.510Z,8.32
2017-04-25T03:45:33.958Z,8.31
2017-04-25T03:46:35.161Z,8.29
2017-04-25T03:47:36.419Z,8.27
2017-04-25T03:48:37.753Z,8.18
2017-04-25T03:49:39.093Z,8.14
2017-04-25T03:50:40.406Z,8.14
2017-04-25T03:51:42.080Z,8.13
2017-04-25T03:52:43.418Z,8.09
2017-04-25T03:53:44.696Z,8.05
2017-04-25T03:54:46.085Z,8.02
2017-04-25T03:55:47.430Z,7.98
2017-04-25T03:56:48.697Z,7.99
2017-04-25T03:57:50.078Z,8.02
2017-04-25T03:58:51.358Z,8.03
2017-04-25T03:59:52.754Z,8.04
2017-04-25T04:00:54.449Z,8.04
2017-04-25T04:01:55.753Z,8.07
2017-04-25T04:02:57.103Z,8.09
2017-04-25T04:03:58.332Z,8.06
2017-04-25T04:04:59.649Z,8.10
2017-04-25T04:06:00.817Z,8.12
2017-04-25T04:07:02.198Z,8.19
2017-04-25T04:08:03.591Z,8.26
2017-04-25T04:09:05.934Z,8.26
2017-04-25T04:10:07.168Z,8.23
2017-04-25T04:11:08.570Z,8.27
2017-04-25T04:12:09.865Z,8.35
2017-04-25T04:13:11.232Z,8.38
2017-04-25T04:14:12.628Z,8.39
2017-04-25T04:15:14.183Z,8.41
2017-04-25T04:16:15.582Z,8.38
2017-04-25T04:17:16.927Z,8.39
2017-04-25T04:18:18.270Z,8.35
2017-04-25T04:19:19.617Z,8.35
2017-04-25T04:20:20.844Z,8.41
2017-04-25T04:21:21.951Z,8.47
2017-04-25T04:22:23.314Z,8.49
2017-04-25T04:23:24.569Z,8.48
2017-04-25T04:24:25.881Z,8.43
2017-04-25T04:25:27.196Z,8.42
2017-04-25T04:26:28.563Z,8.49
2017-04-25T04:27:30.079Z,8.46
2017-04-25T04:28:31.445Z,8.48
2017-04-25T04:29:32.698Z,8.48
2017-04-25T04:30:34.026Z,8.47
2017-04-25T04:31:35.180Z,8.50
2017-04-25T04:32:36.696Z,8.51
2017-04-25T04:33:37.875Z,8.47
2017-04-25T04:34:39.492Z,8.46
2017-04-25T04:35:40.856Z,8.42
2017-04-25T04:36:42.060Z,8.44
2017-04-25T04:37:43.449Z,8.49
2017-04-25T04:38:44.739Z,8.46
2017-04-25T04:39:45.912Z,8.54
2017-04-25T04:40:47.130Z,8.54
2017-04-25T04:41:48.555Z,8.56
2017-04-25T04:42:49.755Z,8.58
2017-04-25T04:43:50.870Z,8.62
2017-04-25T04:44:52.269Z,8.59
2017-04-25T04:45:53.535Z,8.60
2017-04-25T04:46:54.847Z,8.61
2017-04-25T04:47:56.101Z,8.63
2017-04-25T04:48:57.456Z,8.65
2017-04-25T04:49:58.818Z,8.60
2017-04-25T04:50:59.972Z,8.63
2017-04-25T04:52:01.224Z,8.64
2017-04-25T04:53:02.396Z,8.69
2017-04-25T04:54:04.094Z,8.71
2017-04-25T04:55:05.306Z,8.70
2017-04-25T04:56:06.800Z,8.72
2017-04-25T04:57:08.182Z,8.73
2017-04-25T04:58:09.595Z,8.73
2017-04-25T04:59:10.910Z,8.74
2017-04-25T05:00:12.258Z,8.77
2017-04-25T05:01:13.693Z,8.81
2017-04-25T05:02:14.663Z,8.82
2017-04-25T05:03:16.082Z,8.87
2017-04-25T05:04:17.476Z,8.90
2017-04-25T05:05:18.834Z,8.91
2017-04-25T05:06:20.071Z,8.91
2017-04-25T05:07:21.312Z,8.88
2017-04-25T05:08:22.655Z,8.91
2017-04-25T05:09:23.982Z,8.92
2017-04-25T05:10:25.138Z,8.95
2017-04-25T05:11:26.438Z,8.94
2017-04-25T05:12:27.548Z,8.98
2017-04-25T05:13:29.016Z,9.01
2017-04-25T05:14:30.556Z,9.03
2017-04-25T05:15:31.966Z,9.03
2017-04-25T05:16:33.322Z,8.99
2017-04-25T05:17:34.970Z,8.99
2017-04-25T05:18:36.319Z,9.02
2017-04-25T05:19:37.604Z,9.02
2017-04-25T05:20:39.085Z,9.03
2017-04-25T05:21:40.382Z,9.04
2017-04-25T05:22:41.611Z,9.05
2017-04-25T05:23:42.953Z,9.06
2017-04-25T05:24:44.125Z,9.05
2017-04-25T05:25:45.338Z,9.08
2017-04-25T05:26:46.455Z,9.10
2017-04-25T05:27:47.643Z,9.09
2017-04-25T05:28:48.793Z,9.11
2017-04-25T05:29:50.000Z,9.13
2017-04-25T05:30:51.224Z,9.11
2017-04-25T05:31:52.431Z,9.12
2017-04-25T05:32:53.591Z,9.12
2017-04-25T05:33:54.796Z,9.12
2017-04-25T05:34:55.901Z,9.16
2017-04-25T05:35:57.137Z,9.15
2017-04-25T05:36:58.447Z,9.17
2017-04-25T05:37:59.622Z,9.16
2017-04-25T05:39:00.817Z,9.18
2017-04-25T05:40:02.028Z,9.19
2017-04-25T05:41:03.085Z,9.22
2017-04-25T05:42:04.274Z,9.21
2017-04-25T05:43:05.324Z,9.24
2017-04-25T05:44:06.489Z,9.25
2017-04-25T05:45:07.808Z,9.25
2017-04-25T05:46:09.056Z,9.25
2017-04-25T05:47:10.272Z,9.25
2017-04-25T05:48:11.466Z,9.28
2017-04-25T05:49:12.655Z,9.30
2017-04-25T05:50:13.920Z,9.31
2017-04-25T05:51:15.241Z,9.32
2017-04-25T05:52:16.392Z,9.36
2017-04-25T05:53:17.576Z,9.38
2017-04-25T05:54:18.509Z,9.36
2017-04-25T05:55:19.634Z,9.39
2017-04-25T05:56:20.832Z,9.41
2017-04-25T05:57:22.005Z,9.44
2017-04-25T05:58:23.144Z,9.50
2017-04-25T05:59:24.285Z,9.47
2017-04-25T06:00:25.418Z,9.50
2017-04-25T06:01:26.465Z,9.52
2017-04-25T06:02:27.693Z,9.55
2017-04-25T06:03:28.857Z,9.57
2017-04-25T06:04:30.215Z,9.61
2017-04-25T06:05:31.191Z,9.59
2017-04-25T06:06:32.762Z,9.63
2017-04-25T06:07:33.921Z,9.66
2017-04-25T06:08:35.070Z,9.66
2017-04-25T06:09:36.227Z,9.67
2017-04-25T06:10:37.661Z,9.67
2017-04-25T06:11:38.820Z,9.70
2017-04-25T06:12:40.421Z,9.70
2017-04-25T06:13:41.547Z,9.71
2017-04-25T06:14:42.667Z,9.71
2017-04-25T06:15:43.922Z,9.75
2017-04-25T06:16:45.046Z,9.78
2017-04-25T06:17:46.299Z,9.81
2017-04-25T06:18:47.488Z,9.85
2017-04-25T06:19:48.937Z,9.88
2017-04-25T06:20:50.086Z,9.87
2017-04-25T06:21:51.216Z,9.86
2017-04-25T06:22:52.243Z,9.90
2017-04-25T06:23:53.362Z,9.85
2017-04-25T06:24:54.613Z,9.81
2017-04-25T06:25:55.753Z,9.84
2017-04-25T06:26:56.938Z,9.84
2017-04-25T06:27:58.159Z,9.86
2017-04-25T06:28:59.391Z,9.84
2017-04-25T06:30:00.356Z,9.88
2017-04-25T06:31:01.515Z,9.96
2017-04-25T06:32:02.646Z,10.03
2017-04-25T06:33:04.053Z,10.04
2017-04-25T06:34:05.251Z,10.00
2017-04-25T06:35:06.395Z,10.01
2017-04-25T06:36:08.493Z,10.00
2017-04-25T06:37:09.632Z,10.01
2017-04-25T06:38:10.767Z,10.05
2017-04-25T06:39:11.976Z,10.07
2017-04-25T06:40:13.781Z,10.09
2017-04-25T06:41:14.921Z,10.11
2017-04-25T06:42:16.069Z,10.12
2017-04-25T06:43:17.218Z,10.13
2017-04-25T06:44:18.453Z,10.22
2017-04-25T06:45:19.408Z,10.24
2017-04-25T06:46:20.561Z,10.21
2017-04-25T06:47:22.882Z,10.18
2017-04-25T06:48:24.045Z,10.15
2017-04-25T06:49:25.229Z,10.14
2017-04-25T06:50:26.372Z,10.13
2017-04-25T06:51:27.553Z,10.13
2017-04-25T06:52:28.694Z,10.05
2017-04-25T06:53:29.663Z,10.00
2017-04-25T06:54:30.841Z,10.01
2017-04-25T06:55:32.461Z,10.03
2017-04-25T06:56:33.452Z,9.89
2017-04-25T06:57:34.649Z,9.90
2017-04-25T06:58:35.812Z,9.86
2017-04-25T06:59:37.028Z,9.79
2017-04-25T07:00:38.285Z,9.80
2017-04-25T07:01:39.414Z,9.80
2017-04-25T07:02:43.498Z,9.70
2017-04-25T07:03:45.697Z,9.61
2017-04-25T07:04:46.882Z,9.63
2017-04-25T07:05:48.221Z,9.64
2017-04-25T07:06:49.499Z,9.57
2017-04-25T07:07:50.725Z,9.54
2017-04-25T07:08:52.083Z,9.55
2017-04-25T07:09:53.353Z,9.57
2017-04-25T07:10:54.759Z,9.62
2017-04-25T07:11:56.185Z,9.59
2017-04-25T07:12:57.332Z,9.57
2017-04-25T07:13:58.650Z,9.62
2017-04-25T07:14:59.676Z,9.60
2017-04-25T07:16:01.030Z,9.60
2017-04-25T07:17:02.390Z,9.60
2017-04-25T07:18:03.841Z,9.57
2017-04-25T07:19:05.138Z,9.57
2017-04-25T07:20:06.385Z,9.57
2017-04-25T07:21:07.842Z,9.56
2017-04-25T07:22:09.160Z,9.55
2017-04-25T07:23:10.443Z,9.55
2017-04-25T07:24:11.736Z,9.56
2017-04-25T07:25:13.080Z,9.47
2017-04-25T07:26:14.304Z,9.40
2017-04-25T07:27:15.748Z,9.43
2017-04-25T07:28:16.983Z,9.41
2017-04-25T07:29:18.320Z,9.39
2017-04-25T07:30:19.659Z,9.38
2017-04-25T07:31:20.584Z,9.42
2017-04-25T07:32:21.685Z,9.50
2017-04-25T07:33:22.835Z,9.55
2017-04-25T07:34:23.949Z,9.48
2017-04-25T07:35:24.880Z,9.44
2017-04-25T07:36:26.088Z,9.39
2017-04-25T07:37:27.206Z,9.44
2017-04-25T07:38:28.389Z,9.45
2017-04-25T07:39:29.592Z,9.50
2017-04-25T07:40:30.697Z,9.51
2017-04-25T07:41:31.846Z,9.58
2017-04-25T07:42:33.275Z,9.64
2017-04-25T07:43:34.473Z,9.55
2017-04-25T07:44:35.593Z,9.48
2017-04-25T07:45:36.688Z,9.50
2017-04-25T07:46:37.821Z,9.40
2017-04-25T07:47:38.976Z,9.40
2017-04-25T07:48:40.154Z,9.36
2017-04-25T07:49:41.294Z,9.35
2017-04-25T07:50:42.436Z,9.37
2017-04-25T07:51:43.722Z,9.36
2017-04-25T07:52:44.733Z,9.31
2017-04-25T07:53:45.942Z,9.32
2017-04-25T07:54:47.070Z,9.36
2017-04-25T07:55:48.164Z,9.41
2017-04-25T07:56:49.260Z,9.51
2017-04-25T07:57:50.498Z,9.51
2017-04-25T07:58:51.693Z,9.50
2017-04-25T07:59:52.890Z,9.49
2017-04-25T08:00:54.030Z,9.49
2017-04-25T08:01:55.193Z,9.46
2017-04-25T08:02:56.295Z,9.42
2017-04-25T08:03:57.405Z,9.45
2017-04-25T08:04:58.765Z,9.52
2017-04-25T08:05:59.968Z,9.52
2017-04-25T08:07:01.081Z,9.47
2017-04-25T08:08:02.200Z,9.41
2017-04-25T08:09:03.723Z,9.30
2017-04-25T08:10:04.974Z,9.25
2017-04-25T08:11:06.793Z,9.14
2017-04-25T08:12:08.019Z,9.07
2017-04-25T08:13:09.166Z,9.08
2017-04-25T08:14:10.427Z,8.98
2017-04-25T08:15:11.543Z,9.00
2017-04-25T08:16:12.553Z,8.99
2017-04-25T08:17:13.731Z,8.96
2017-04-25T08:18:14.916Z,8.96
2017-04-25T08:19:16.111Z,8.91
2017-04-25T08:20:17.195Z,8.98
2017-04-25T08:21:18.361Z,8.96
2017-04-25T08:22:19.503Z,8.98
2017-04-25T08:23:20.646Z,9.01
2017-04-25T08:24:21.818Z,9.00
2017-04-25T08:25:22.980Z,9.00
2017-04-25T08:26:24.233Z,8.97
2017-04-25T08:27:25.227Z,8.95
2017-04-25T08:28:26.328Z,8.99
2017-04-25T08:29:27.563Z,8.98
2017-04-25T08:30:28.563Z,8.92
2017-04-25T08:31:29.701Z,8.93
2017-04-25T08:32:30.932Z,8.87
2017-04-25T08:33:32.083Z,8.90
2017-04-25T08:34:33.334Z,8.92
2017-04-25T08:35:34.565Z,8.95
2017-04-25T08:36:35.711Z,9.04
2017-04-25T08:37:36.941Z,9.10
2017-04-25T08:38:38.092Z,9.14
2017-04-25T08:39:39.262Z,9.08
2017-04-25T08:40:40.469Z,9.13
2017-04-25T08:41:41.697Z,9.13
2017-04-25T08:42:42.882Z,9.19
2017-04-25T08:43:44.014Z,9.22
2017-04-25T08:44:45.109Z,9.17
2017-04-25T08:45:46.278Z,9.14
2017-04-25T08:46:47.254Z,9.10
2017-04-25T08:47:48.371Z,9.06
2017-04-25T08:48:49.491Z,9.14
2017-04-25T08:49:50.629Z,9.08
2017-04-25T08:50:51.763Z,9.02
2017-04-25T08:51:52.976Z,8.94
2017-04-25T08:52:54.104Z,8.96
2017-04-25T08:53:55.211Z,8.90
2017-04-25T08:54:56.351Z,8.97
2017-04-25T08:55:57.441Z,8.97
2017-04-25T08:56:58.915Z,9.03
2017-04-25T08:58:00.175Z,9.09
2017-04-25T08:59:01.472Z,9.10
2017-04-25T09:00:02.673Z,9.08
2017-04-25T09:01:03.718Z,9.13
2017-04-25T09:02:04.985Z,9.18
2017-04-25T09:03:06.541Z,9.20
2017-04-25T09:04:07.541Z,9.21
2017-04-25T09:05:09.077Z,9.28
2017-04-25T09:06:10.241Z,9.27
2017-04-25T09:07:11.178Z,9.30
2017-04-25T09:08:12.392Z,9.34
2017-04-25T09:09:13.523Z,9.34
2017-04-25T09:10:15.521Z,9.43
2017-04-25T09:11:16.481Z,9.36
2017-04-25T09:12:17.598Z,9.36
2017-04-25T09:13:18.768Z,9.33
2017-04-25T09:14:20.009Z,9.33
2017-04-25T09:15:21.327Z,9.38
2017-04-25T09:16:22.679Z,9.45
2017-04-25T09:17:24.027Z,9.50
2017-04-25T09:18:25.165Z,9.56
2017-04-25T09:19:26.646Z,9.60
2017-04-25T09:20:27.840Z,9.68
2017-04-25T09:21:29.261Z,9.67
2017-04-25T09:22:30.590Z,9.67
2017-04-25T09:23:31.955Z,9.71
2017-04-25T09:24:33.540Z,9.80
2017-04-25T09:25:35.030Z,9.85
2017-04-25T09:26:36.375Z,9.88
2017-04-25T09:27:37.648Z,9.95
2017-04-25T09:28:38.792Z,9.95
2017-04-25T09:29:39.968Z,9.99
2017-04-25T09:30:41.182Z,9.98
2017-04-25T09:31:42.316Z,10.00
2017-04-25T09:32:43.277Z,10.02
2017-04-25T09:33:44.487Z,10.04
2017-04-25T09:34:45.609Z,10.03
2017-04-25T09:35:46.803Z,10.02
2017-04-25T09:36:47.959Z,10.07
2017-04-25T09:37:49.095Z,10.06
2017-04-25T09:38:50.207Z,9.98
2017-04-25T09:39:51.372Z,9.98
2017-04-25T09:40:52.655Z,9.93
2017-04-25T09:41:53.811Z,9.91
2017-04-25T09:42:55.057Z,9.89
2017-04-25T09:43:56.180Z,9.84
2017-04-25T09:44:57.286Z,9.82
2017-04-25T09:45:58.551Z,9.83
2017-04-25T09:46:59.519Z,9.86
2017-04-25T09:48:00.686Z,9.86
2017-04-25T09:49:01.616Z,9.84
2017-04-25T09:50:02.711Z,9.84
2017-04-25T09:51:04.058Z,9.80
2017-04-25T09:52:05.291Z,9.84
2017-04-25T09:53:06.449Z,9.85
2017-04-25T09:54:07.665Z,9.84
2017-04-25T09:55:08.922Z,9.80
2017-04-25T09:56:10.345Z,9.72
2017-04-25T09:57:11.478Z,9.76
2017-04-25T09:58:12.725Z,9.76
2017-04-25T09:59:14.273Z,9.65
2017-04-25T10:00:15.519Z,9.61
2017-04-25T10:01:16.765Z,9.68
2017-04-25T10:02:17.715Z,9.67
2017-04-25T10:03:18.885Z,9.68
2017-04-25T10:04:19.997Z,9.68
2017-04-25T10:05:21.511Z,9.65
2017-04-25T10:06:22.889Z,9.63
2017-04-25T10:07:24.211Z,9.65
2017-04-25T10:08:25.541Z,9.66
2017-04-25T10:09:26.797Z,9.71
2017-04-25T10:10:28.132Z,9.71
2017-04-25T10:11:29.406Z,9.66
2017-04-25T10:12:30.814Z,9.62
2017-04-25T10:13:32.250Z,9.66
2017-04-25T10:14:33.665Z,9.66
2017-04-25T10:15:34.898Z,9.66
2017-04-25T10:16:36.370Z,9.65
2017-04-25T10:17:37.582Z,9.65
2017-04-25T10:18:38.922Z,9.70
2017-04-25T10:19:40.178Z,9.70
2017-04-25T10:20:41.516Z,9.75
2017-04-25T10:21:42.809Z,9.71
2017-04-25T10:22:44.072Z,9.72
2017-04-25T10:23:45.315Z,9.75
2017-04-25T10:24:46.550Z,9.71
2017-04-25T10:25:47.695Z,9.67
2017-04-25T10:26:49.035Z,9.67
2017-04-25T10:27:50.285Z,9.73
2017-04-25T10:28:51.821Z,9.72
2017-04-25T10:29:53.348Z,9.73
2017-04-25T10:30:54.465Z,9.75
2017-04-25T10:31:56.088Z,9.76
2017-04-25T10:32:57.407Z,9.75
2017-04-25T10:33:58.893Z,9.72
2017-04-25T10:35:00.045Z,9.72
2017-04-25T10:36:01.694Z,9.71
2017-04-25T10:37:02.933Z,9.68
2017-04-25T10:38:04.217Z,9.71
2017-04-25T10:39:05.906Z,9.72
2017-04-25T10:40:07.148Z,9.70
2017-04-25T10:41:08.380Z,9.68
2017-04-25T10:42:09.509Z,9.66
2017-04-25T10:43:10.788Z,9.71
2017-04-25T10:44:12.119Z,9.67
2017-04-25T10:45:13.358Z,9.65
2017-04-25T10:46:14.646Z,9.67
2017-04-25T10:47:16.033Z,9.68
2017-04-25T10:48:17.249Z,9.71
2017-04-25T10:49:18.691Z,9.71
2017-04-25T10:50:20.036Z,9.71
2017-04-25T10:51:21.146Z,9.78
2017-04-25T10:52:22.386Z,9.82
2017-04-25T10:53:23.616Z,9.82
2017-04-25T10:54:25.388Z,9.80
2017-04-25T10:55:26.721Z,9.78
2017-04-25T10:56:27.940Z,9.74
2017-04-25T10:57:29.376Z,9.75
2017-04-25T10:58:30.485Z,9.74
2017-04-25T10:59:31.747Z,9.76
2017-04-25T11:00:32.865Z,9.78
2017-04-25T11:01:33.848Z,9.75
2017-04-25T11:02:34.826Z,9.72
2017-04-25T11:03:35.748Z,9.74
2017-04-25T11:04:36.883Z,9.78
2017-04-25T11:05:38.008Z,9.80
2017-04-25T11:06:39.009Z,9.81
2017-04-25T11:07:40.176Z,9.81
2017-04-25T11:08:41.169Z,9.85
2017-04-25T11:09:42.289Z,9.89
2017-04-25T11:10:48.718Z,9.88
2017-04-25T11:11:50.015Z,9.82
2017-04-25T11:12:51.249Z,9.78
2017-04-25T11:13:52.588Z,9.79
2017-04-25T11:14:53.982Z,9.85
2017-04-25T11:15:55.153Z,9.86
2017-04-25T11:16:56.497Z,9.84
2017-04-25T11:17:57.521Z,9.84
2017-04-25T11:18:58.740Z,9.89
2017-04-25T11:20:00.066Z,9.86
2017-04-25T11:21:01.330Z,9.85
2017-04-25T11:22:02.749Z,9.89
2017-04-25T11:23:03.926Z,9.94
2017-04-25T11:24:05.188Z,9.95
2017-04-25T11:25:06.485Z,9.97
2017-04-25T11:26:07.505Z,10.03
2017-04-25T11:27:08.876Z,10.06
2017-04-25T11:28:09.904Z,10.12
2017-04-25T11:29:11.221Z,10.13
2017-04-25T11:30:12.660Z,10.13
2017-04-25T11:31:13.794Z,10.20
2017-04-25T11:32:15.021Z,10.22
2017-04-25T11:33:16.205Z,10.21
2017-04-25T11:34:17.436Z,10.26
2017-04-25T11:35:18.727Z,10.27
2017-04-25T11:36:19.868Z,10.26
2017-04-25T11:37:20.941Z,10.27
2017-04-25T11:38:22.226Z,10.28
2017-04-25T11:39:23.189Z,10.34
2017-04-25T11:40:24.600Z,10.31
2017-04-25T11:41:25.736Z,10.33
2017-04-25T11:42:27.083Z,10.38
2017-04-25T11:43:28.323Z,10.40
2017-04-25T11:44:29.588Z,10.40
2017-04-25T11:45:30.764Z,10.44
2017-04-25T11:46:32.013Z,10.41
2017-04-25T11:47:33.044Z,10.40
2017-04-25T11:48:34.492Z,10.38
2017-04-25T11:49:35.733Z,10.37
2017-04-25T11:50:37.280Z,10.33
2017-04-25T11:51:38.580Z,10.33
2017-04-25T11:52:40.063Z,10.39
2017-04-25T11:53:41.266Z,10.40
2017-04-25T11:54:42.408Z,10.45
2017-04-25T11:55:43.626Z,10.37
2017-04-25T11:56:44.874Z,10.36
2017-04-25T11:57:46.171Z,10.39
2017-04-25T11:58:47.579Z,10.37
2017-04-25T11:59:48.878Z,10.39
2017-04-25T12:00:50.237Z,10.41
2017-04-25T12:01:51.472Z,10.38
2017-04-25T12:02:52.806Z,10.41
2017-04-25T12:03:54.056Z,10.39
2017-04-25T12:04:55.273Z,10.39
2017-04-25T12:05:56.584Z,10.39
2017-04-25T12:06:57.625Z,10.31
2017-04-25T12:07:59.069Z,10.30
2017-04-25T12:09:00.272Z,10.30
2017-04-25T12:10:01.231Z,10.32
2017-04-25T12:11:02.210Z,10.37
2017-04-25T12:12:03.347Z,10.40
2017-04-25T12:13:04.742Z,10.43
2017-04-25T12:14:05.978Z,10.44
2017-04-25T12:15:06.970Z,10.44
2017-04-25T12:16:08.229Z,10.46
2017-04-25T12:17:09.346Z,10.54
2017-04-25T12:18:10.698Z,10.54
2017-04-25T12:19:12.073Z,10.60
2017-04-25T12:20:13.298Z,10.64
2017-04-25T12:21:14.531Z,10.58
2017-04-25T12:22:15.958Z,10.55
2017-04-25T12:23:17.314Z,10.51
2017-04-25T12:24:18.582Z,10.52
2017-04-25T12:25:19.874Z,10.56
2017-04-25T12:26:21.513Z,10.54
2017-04-25T12:27:22.649Z,10.49
2017-04-25T12:28:23.927Z,10.46
2017-04-25T12:29:25.226Z,10.42
2017-04-25T12:30:26.673Z,10.44
2017-04-25T12:31:27.762Z,10.45
2017-04-25T12:32:29.011Z,10.44
2017-04-25T12:33:30.350Z,10.46
2017-04-25T12:34:31.685Z,10.49
2017-04-25T12:35:32.905Z,10.56
2017-04-25T12:36:34.136Z,10.55
2017-04-25T12:37:35.489Z,10.52
2017-04-25T12:38:36.595Z,10.51
2017-04-25T12:39:37.645Z,10.51
2017-04-25T12:40:39.096Z,10.54
2017-04-25T12:41:40.447Z,10.52
2017-04-25T12:42:41.769Z,10.36
2017-04-25T12:43:43.045Z,10.20
2017-04-25T12:44:44.431Z,10.12
2017-04-25T12:45:45.801Z,10.10
2017-04-25T12:46:47.189Z,10.11
2017-04-25T12:47:48.428Z,10.11
2017-04-25T12:48:49.651Z,10.11
2017-04-25T12:49:52.076Z,10.10
2017-04-25T12:50:53.364Z,10.08
2017-04-25T12:51:54.597Z,10.12
2017-04-25T12:52:55.843Z,10.17
2017-04-25T12:53:56.954Z,10.16
2017-04-25T12:54:58.540Z,10.13
2017-04-25T12:55:59.660Z,10.03
2017-04-25T12:57:01.017Z,9.90
2017-04-25T12:58:02.089Z,9.90
2017-04-25T12:59:03.368Z,9.95
2017-04-25T13:00:04.862Z,9.92
2017-04-25T13:01:06.097Z,9.94
2017-04-25T13:02:07.413Z,9.95
2017-04-25T13:03:08.331Z,9.94
2017-04-25T13:04:09.453Z,9.94
2017-04-25T13:05:10.629Z,9.96
2017-04-25T13:06:11.736Z,9.93
2017-04-25T13:07:12.873Z,9.93
2017-04-25T13:08:13.777Z,9.93
2017-04-25T13:09:14.913Z,9.94
2017-04-25T13:10:16.247Z,9.89
2017-04-25T13:11:17.157Z,9.84
2017-04-25T13:12:18.197Z,9.84
2017-04-25T13:13:19.345Z,9.87
2017-04-25T13:14:20.651Z,9.89
2017-04-25T13:15:21.994Z,9.94
2017-04-25T13:16:23.130Z,9.97
2017-04-25T13:17:24.366Z,10.01
2017-04-25T13:18:25.805Z,10.02
2017-04-25T13:19:26.980Z,10.00
2017-04-25T13:20:28.146Z,10.01
2017-04-25T13:21:29.317Z,9.98
2017-04-25T13:22:30.417Z,10.01
2017-04-25T13:23:34.597Z,9.97
2017-04-25T13:24:35.810Z,9.94
2017-04-25T13:25:37.445Z,9.96
2017-04-25T13:26:38.577Z,9.97
2017-04-25T13:27:39.496Z,10.01
2017-04-25T13:28:40.738Z,10.01
2017-04-25T13:29:42.077Z,10.06
2017-04-25T13:30:43.419Z,10.05
2017-04-25T13:31:44.829Z,10.06
2017-04-25T13:32:46.133Z,10.10
2017-04-25T13:33:47.334Z,10.10
2017-04-25T13:34:48.653Z,10.09